Time;durP1;ratioP1;P1;durP2;ratioP2;P2;SDS_P1;SDS_P2;PMS_P1;PMS_P2;Temp;Humidity;BMP_temperature;BMP_pressure;BME280_temperature;BME280_humidity;BME280_pressure;Samples;Min_cycle;Max_cycle;Signal;HPM_P1;HPM_P2
2021/01/11 05:45:17;;;;;;;15.15;7.20;;;;;;;;;;6261853;22;938290;-81
2021/01/11 05:50:08;;;;;;;12.38;6.10;;;;;;;;;;5044434;28;20389;-78
2021/01/11 05:52:34;;;;;;;12.25;5.82;;;;;;;;;;5048264;28;20053;-79
2021/01/11 05:55:18;;;;;;;9.75;5.30;;;;;;;;;;5052832;28;20033;-78
2021/01/11 05:57:53;;;;;;;12.00;5.85;;;;;;;;;;5036922;28;20028;-81
2021/01/11 06:00:19;;;;;;;13.82;5.90;;;;;;;;;;5039903;28;20025;-79
2021/01/11 06:02:45;;;;;;;12.10;6.40;;;;;;;;;;5047715;28;20021;-79
2021/01/11 06:05:11;;;;;;;16.73;7.88;;;;;;;;;;5043303;28;20075;-80
2021/01/11 06:07:37;;;;;;;13.57;7.53;;;;;;;;;;5037582;28;20419;-82
2021/01/11 06:12:21;;;;;;;14.15;7.15;;;;;;;;;;5118685;27;20352;-82
2021/01/11 06:14:47;;;;;;;10.13;5.97;;;;;;;;;;5111140;28;20426;-82
2021/01/11 06:17:13;;;;;;;13.90;7.07;;;;;;;;;;5104121;28;20043;-82
2021/01/11 06:19:39;;;;;;;12.85;6.22;;;;;;;;;;5108864;28;20391;-81
2021/01/11 06:22:05;;;;;;;13.27;6.85;;;;;;;;;;5105003;28;20022;-80
2021/01/11 06:24:36;;;;;;;12.77;7.07;;;;;;;;;;5105183;28;20492;-82
2021/01/11 06:27:15;;;;;;;15.77;7.32;;;;;;;;;;5099629;28;20031;-82
2021/01/11 06:29:46;;;;;;;13.10;6.72;;;;;;;;;;5099614;28;20094;-80
2021/01/11 06:32:35;;;;;;;11.07;6.85;;;;;;;;;;5105443;28;20042;-81
2021/01/11 06:35:01;;;;;;;12.93;6.55;;;;;;;;;;5099557;28;20035;-82
2021/01/11 06:37:27;;;;;;;11.50;6.05;;;;;;;;;;5107858;28;20556;-81
2021/01/11 06:39:53;;;;;;;11.05;6.15;;;;;;;;;;5105218;28;20039;-81
2021/01/11 06:42:19;;;;;;;13.80;6.18;;;;;;;;;;5103845;28;20081;-82
2021/01/11 06:44:49;;;;;;;15.90;6.15;;;;;;;;;;5102206;28;20596;-81
2021/01/11 06:49:35;;;;;;;11.02;5.60;;;;;;;;;;5102084;27;20397;-81
2021/01/11 06:52:08;;;;;;;13.27;6.30;;;;;;;;;;5108347;28;20024;-81
2021/01/11 06:54:38;;;;;;;10.77;6.45;;;;;;;;;;5112076;28;20032;-81
2021/01/11 06:57:08;;;;;;;17.20;8.38;;;;;;;;;;5110362;28;20073;-81
2021/01/11 06:59:37;;;;;;;18.40;9.73;;;;;;;;;;5111595;28;20024;-81
2021/01/11 07:02:17;;;;;;;20.30;10.10;;;;;;;;;;5102492;28;20365;-80
2021/01/11 07:04:44;;;;;;;17.65;9.07;;;;;;;;;;5103947;28;20051;-81
2021/01/11 07:07:16;;;;;;;17.45;7.70;;;;;;;;;;5111217;28;20107;-81
2021/01/11 07:09:49;;;;;;;16.40;7.57;;;;;;;;;;5106755;28;20034;-82
2021/01/11 07:12:18;;;;;;;16.52;8.55;;;;;;;;;;5102811;28;20388;-82
2021/01/11 07:14:53;;;;;;;15.07;8.05;;;;;;;;;;5105914;28;20060;-81
2021/01/11 07:17:36;;;;;;;12.75;7.05;;;;;;;;;;5104713;28;20298;-80
2021/01/11 07:20:02;;;;;;;15.70;7.40;;;;;;;;;;5109621;28;20384;-81
2021/01/11 07:22:28;;;;;;;13.27;7.28;;;;;;;;;;5108416;28;20025;-81
2021/01/11 07:24:54;;;;;;;13.05;7.75;;;;;;;;;;5106005;28;20021;-80
2021/01/11 07:27:20;;;;;;;13.20;7.22;;;;;;;;;;5101247;28;20016;-81
2021/01/11 07:29:46;;;;;;;17.75;8.30;;;;;;;;;;5102161;28;20466;-80
2021/01/11 07:34:33;;;;;;;16.75;7.82;;;;;;;;;;5089662;28;20410;-83
2021/01/11 07:36:59;;;;;;;17.08;9.18;;;;;;;;;;5084515;28;20033;-80
2021/01/11 07:39:29;;;;;;;20.05;9.40;;;;;;;;;;5087427;28;20066;-81
2021/01/11 07:41:56;;;;;;;16.08;7.43;;;;;;;;;;5087570;28;20028;-81
2021/01/11 07:44:26;;;;;;;15.32;8.60;;;;;;;;;;5084049;28;20033;-81
2021/01/11 07:46:57;;;;;;;16.70;9.05;;;;;;;;;;5084058;28;20025;-81
2021/01/11 07:49:23;;;;;;;14.32;8.10;;;;;;;;;;5082379;28;20025;-81
2021/01/11 07:51:49;;;;;;;18.23;9.00;;;;;;;;;;5087407;28;20021;-81
2021/01/11 07:54:17;;;;;;;17.20;9.80;;;;;;;;;;5083211;28;20032;-81
2021/01/11 07:56:43;;;;;;;17.50;8.95;;;;;;;;;;5092192;28;20117;-81
2021/01/11 07:59:09;;;;;;;18.20;9.70;;;;;;;;;;5092992;28;20020;-81
2021/01/11 08:01:38;;;;;;;16.88;8.55;;;;;;;;;;5084970;28;20145;-80
2021/01/11 08:04:04;;;;;;;16.58;9.07;;;;;;;;;;5096538;28;20066;-81
2021/01/11 08:06:31;;;;;;;22.23;10.35;;;;;;;;;;5084724;28;20068;-79
2021/01/11 08:08:58;;;;;;;19.42;9.35;;;;;;;;;;5090372;28;20111;-82
2021/01/11 08:11:25;;;;;;;17.58;9.82;;;;;;;;;;5079662;28;20484;-81
2021/01/11 08:13:51;;;;;;;19.40;10.05;;;;;;;;;;5081534;28;20113;-81
2021/01/11 08:16:17;;;;;;;18.48;8.68;;;;;;;;;;5077752;28;20121;-81
2021/01/11 08:18:43;;;;;;;18.67;9.85;;;;;;;;;;5077795;28;20037;-81
2021/01/11 08:21:13;;;;;;;18.38;9.50;;;;;;;;;;5080939;28;20024;-81
2021/01/11 08:23:40;;;;;;;17.05;9.32;;;;;;;;;;5082526;28;20028;-81
2021/01/11 08:26:09;;;;;;;27.15;12.13;;;;;;;;;;5076033;28;20033;-81
2021/01/11 08:28:36;;;;;;;27.52;12.70;;;;;;;;;;5088607;28;20384;-81
2021/01/11 08:31:02;;;;;;;36.38;15.68;;;;;;;;;;5078142;28;20086;-81
2021/01/11 08:33:30;;;;;;;31.80;15.07;;;;;;;;;;5095130;28;20048;-81
2021/01/11 08:36:14;;;;;;;25.90;12.82;;;;;;;;;;5075891;28;20024;-81
2021/01/11 08:38:59;;;;;;;19.58;11.02;;;;;;;;;;5085509;28;20028;-81
2021/01/11 08:41:26;;;;;;;24.05;10.52;;;;;;;;;;5082477;28;20032;-81
2021/01/11 08:43:52;;;;;;;15.52;9.00;;;;;;;;;;5082897;28;20030;-81
2021/01/11 08:46:18;;;;;;;18.88;9.98;;;;;;;;;;5074683;28;20024;-81
2021/01/11 08:48:44;;;;;;;17.83;8.77;;;;;;;;;;5076128;28;20028;-81
2021/01/11 08:51:23;;;;;;;19.40;10.02;;;;;;;;;;5073075;28;20420;-81
2021/01/11 08:53:50;;;;;;;17.88;9.43;;;;;;;;;;5088288;28;20134;-81
2021/01/11 08:56:27;;;;;;;16.45;8.95;;;;;;;;;;5086130;28;20036;-80
2021/01/11 08:58:53;;;;;;;22.38;11.27;;;;;;;;;;5087303;28;20492;-82
2021/01/11 09:01:26;;;;;;;27.40;13.68;;;;;;;;;;5092813;28;20021;-81
2021/01/11 09:03:54;;;;;;;26.08;14.90;;;;;;;;;;5085075;28;20141;-81
2021/01/11 09:06:39;;;;;;;30.67;16.40;;;;;;;;;;5079050;28;20401;-82
2021/01/11 09:09:06;;;;;;;31.35;16.70;;;;;;;;;;5073383;28;20037;-81
2021/01/11 09:11:32;;;;;;;28.13;14.77;;;;;;;;;;5076027;28;20067;-81
2021/01/11 09:14:08;;;;;;;24.98;13.20;;;;;;;;;;5087100;28;20050;-82
2021/01/11 09:16:35;;;;;;;22.20;12.43;;;;;;;;;;5083168;28;20029;-81
2021/01/11 09:19:05;;;;;;;18.80;11.05;;;;;;;;;;5099551;28;20058;-81
2021/01/11 09:21:31;;;;;;;22.10;11.80;;;;;;;;;;5092956;28;20450;-81
2021/01/11 09:23:57;;;;;;;21.40;10.95;;;;;;;;;;5071577;28;20108;-82
2021/01/11 09:26:23;;;;;;;17.95;8.98;;;;;;;;;;5069709;28;20090;-81
2021/01/11 09:28:49;;;;;;;19.45;9.52;;;;;;;;;;5070389;28;20059;-81
2021/01/11 09:31:16;;;;;;;20.50;9.88;;;;;;;;;;5068793;28;20032;-82
2021/01/11 09:33:42;;;;;;;17.20;9.63;;;;;;;;;;5062832;28;20025;-82
2021/01/11 09:36:08;;;;;;;15.77;9.40;;;;;;;;;;5066358;28;20824;-83
2021/01/11 09:38:34;;;;;;;17.20;8.80;;;;;;;;;;5072089;28;20039;-83
2021/01/11 09:41:00;;;;;;;16.30;9.65;;;;;;;;;;5071017;28;20607;-83
2021/01/11 09:43:26;;;;;;;16.55;9.13;;;;;;;;;;5072523;28;20465;-82
2021/01/11 09:45:52;;;;;;;14.07;8.07;;;;;;;;;;5066391;28;20021;-82
2021/01/11 09:48:18;;;;;;;15.50;7.63;;;;;;;;;;5070664;28;20020;-82
2021/01/11 09:50:44;;;;;;;14.65;7.78;;;;;;;;;;5070105;28;20109;-82
2021/01/11 09:53:11;;;;;;;18.25;9.75;;;;;;;;;;5072659;28;20024;-81
2021/01/11 09:55:37;;;;;;;21.15;10.30;;;;;;;;;;5077089;28;20020;-82
2021/01/11 09:58:04;;;;;;;20.42;10.60;;;;;;;;;;5071500;28;20035;-82
2021/01/11 10:00:31;;;;;;;20.35;11.35;;;;;;;;;;5074549;28;20039;-82
2021/01/11 10:02:58;;;;;;;16.77;9.63;;;;;;;;;;5081437;28;20649;-83
2021/01/11 10:05:24;;;;;;;17.25;9.27;;;;;;;;;;5080195;28;20086;-83
2021/01/11 10:07:51;;;;;;;15.55;9.30;;;;;;;;;;5069489;28;20020;-83
2021/01/11 10:10:17;;;;;;;17.00;8.85;;;;;;;;;;5071047;28;20021;-84
2021/01/11 10:12:43;;;;;;;19.42;9.27;;;;;;;;;;5072448;28;20714;-83
2021/01/11 10:15:09;;;;;;;14.73;8.63;;;;;;;;;;5071619;28;20024;-83
2021/01/11 10:17:37;;;;;;;16.08;9.35;;;;;;;;;;5090181;28;20085;-83
2021/01/11 10:20:04;;;;;;;16.48;10.10;;;;;;;;;;5079993;28;20028;-83
2021/01/11 10:22:29;;;;;;;17.45;9.48;;;;;;;;;;5079873;28;20071;-83
2021/01/11 10:24:55;;;;;;;15.07;8.43;;;;;;;;;;5066422;28;20040;-83
2021/01/11 10:27:21;;;;;;;15.50;7.72;;;;;;;;;;5065497;28;20040;-84
2021/01/11 10:29:47;;;;;;;14.95;8.43;;;;;;;;;;5063380;28;20020;-83
2021/01/11 10:32:13;;;;;;;14.30;8.55;;;;;;;;;;5079231;28;20146;-83
2021/01/11 10:34:39;;;;;;;15.38;9.02;;;;;;;;;;5071301;28;20024;-83
2021/01/11 10:37:05;;;;;;;15.32;9.50;;;;;;;;;;5077790;28;20024;-84
2021/01/11 10:39:31;;;;;;;46.55;23.13;;;;;;;;;;5081511;28;20067;-83
2021/01/11 10:41:58;;;;;;;47.50;25.00;;;;;;;;;;5080896;28;20110;-83
2021/01/11 10:44:24;;;;;;;32.45;17.33;;;;;;;;;;5074276;28;20036;-83
2021/01/11 10:46:50;;;;;;;53.45;29.48;;;;;;;;;;5076071;28;20024;-83
2021/01/11 10:49:16;;;;;;;53.38;31.63;;;;;;;;;;5072095;28;20506;-83
2021/01/11 10:51:43;;;;;;;41.10;23.48;;;;;;;;;;5072415;28;20123;-83
2021/01/11 10:54:09;;;;;;;33.05;19.27;;;;;;;;;;5068931;28;20485;-83
2021/01/11 10:56:35;;;;;;;23.83;14.88;;;;;;;;;;5065342;28;20474;-81
2021/01/11 10:59:01;;;;;;;18.23;10.40;;;;;;;;;;5065217;28;20021;-81
2021/01/11 11:01:27;;;;;;;16.63;10.85;;;;;;;;;;5065985;28;20021;-81
2021/01/11 11:03:52;;;;;;;15.05;9.75;;;;;;;;;;5075094;28;20036;-82
2021/01/11 11:06:22;;;;;;;14.52;9.75;;;;;;;;;;5071726;28;20024;-82
2021/01/11 11:08:48;;;;;;;14.73;9.02;;;;;;;;;;5071485;28;20511;-82
2021/01/11 11:11:14;;;;;;;13.50;8.68;;;;;;;;;;5080541;28;20028;-82
2021/01/11 11:13:40;;;;;;;15.38;9.23;;;;;;;;;;5073266;28;20353;-82
2021/01/11 11:16:08;;;;;;;13.70;9.57;;;;;;;;;;5075546;28;20016;-82
2021/01/11 11:18:35;;;;;;;14.65;9.23;;;;;;;;;;5080155;28;20029;-82
2021/01/11 11:21:01;;;;;;;11.98;8.02;;;;;;;;;;5080972;28;20421;-82
2021/01/11 11:23:27;;;;;;;13.18;8.60;;;;;;;;;;5076362;28;20024;-82
2021/01/11 11:25:53;;;;;;;12.90;9.07;;;;;;;;;;5073290;28;20024;-82
2021/01/11 11:28:19;;;;;;;14.35;9.10;;;;;;;;;;5069703;28;20037;-82
2021/01/11 11:30:45;;;;;;;11.85;8.05;;;;;;;;;;5082136;28;20029;-81
2021/01/11 11:33:11;;;;;;;14.07;8.50;;;;;;;;;;5078641;28;20416;-82
2021/01/11 11:35:41;;;;;;;12.80;8.63;;;;;;;;;;5074951;28;20020;-82
2021/01/11 11:38:07;;;;;;;11.65;8.15;;;;;;;;;;5074554;28;20074;-82
2021/01/11 11:40:33;;;;;;;13.60;8.32;;;;;;;;;;5085716;28;20025;-81
2021/01/11 11:42:59;;;;;;;12.13;7.32;;;;;;;;;;5068755;28;20039;-82
2021/01/11 11:45:25;;;;;;;12.45;8.50;;;;;;;;;;5063356;28;20028;-82
2021/01/11 11:47:50;;;;;;;10.85;7.65;;;;;;;;;;5065545;28;20032;-82
2021/01/11 11:50:16;;;;;;;11.45;6.85;;;;;;;;;;5059131;28;20524;-81
2021/01/11 11:52:43;;;;;;;11.13;6.70;;;;;;;;;;5066541;28;20056;-82
2021/01/11 11:55:12;;;;;;;9.30;6.10;;;;;;;;;;5063823;28;20024;-82
2021/01/11 11:57:45;;;;;;;10.25;6.10;;;;;;;;;;5066923;28;20024;-82
2021/01/11 12:00:12;;;;;;;10.63;6.38;;;;;;;;;;5063489;28;20017;-82
2021/01/11 12:02:41;;;;;;;9.63;6.47;;;;;;;;;;5067039;28;20093;-82
2021/01/11 12:05:11;;;;;;;8.68;5.57;;;;;;;;;;5066062;28;20024;-81
2021/01/11 12:07:37;;;;;;;9.75;6.05;;;;;;;;;;5066296;28;20052;-81
2021/01/11 12:10:04;;;;;;;8.60;5.70;;;;;;;;;;5064776;28;20115;-82
2021/01/11 12:12:30;;;;;;;12.30;5.97;;;;;;;;;;5065138;28;20036;-82
2021/01/11 12:14:56;;;;;;;10.85;6.18;;;;;;;;;;5077916;28;20025;-82
2021/01/11 12:17:22;;;;;;;9.57;6.15;;;;;;;;;;5068364;28;20115;-81
2021/01/11 12:19:48;;;;;;;9.90;5.57;;;;;;;;;;5078253;28;20020;-81
2021/01/11 12:22:14;;;;;;;9.70;5.90;;;;;;;;;;5067887;28;20106;-81
2021/01/11 12:24:40;;;;;;;9.15;5.45;;;;;;;;;;5069805;28;20027;-82
2021/01/11 12:27:06;;;;;;;8.88;5.53;;;;;;;;;;5068021;28;20052;-81
2021/01/11 12:29:32;;;;;;;9.32;5.40;;;;;;;;;;5064046;28;20041;-81
2021/01/11 12:31:58;;;;;;;7.38;4.03;;;;;;;;;;5065723;28;20043;-81
2021/01/11 12:34:24;;;;;;;8.00;4.88;;;;;;;;;;5066028;28;20527;-81
2021/01/11 12:36:50;;;;;;;7.70;4.38;;;;;;;;;;5067427;28;20051;-81
2021/01/11 12:41:35;;;;;;;9.38;4.45;;;;;;;;;;5070871;28;20415;-80
2021/01/11 12:44:01;;;;;;;8.98;5.22;;;;;;;;;;5047914;28;20108;-81
2021/01/11 12:46:27;;;;;;;7.78;4.47;;;;;;;;;;5036593;28;20075;-80
2021/01/11 12:48:53;;;;;;;10.90;5.53;;;;;;;;;;5025364;28;20033;-81
2021/01/11 12:51:23;;;;;;;11.20;5.93;;;;;;;;;;5023257;28;20033;-81
2021/01/11 12:53:50;;;;;;;9.43;5.55;;;;;;;;;;5029510;28;20040;-81
2021/01/11 12:56:17;;;;;;;8.82;4.80;;;;;;;;;;5025178;28;20406;-81
2021/01/11 12:58:44;;;;;;;7.80;5.07;;;;;;;;;;5022303;28;20029;-81
2021/01/11 13:03:29;;;;;;;7.70;4.35;;;;;;;;;;5107011;27;20380;-81
2021/01/11 13:05:54;;;;;;;10.23;4.97;;;;;;;;;;5107930;28;20136;-81
2021/01/11 13:08:20;;;;;;;6.82;4.25;;;;;;;;;;5102057;28;20517;-81
2021/01/11 13:10:46;;;;;;;7.90;4.93;;;;;;;;;;5105796;28;20015;-81
2021/01/11 13:13:12;;;;;;;8.27;4.65;;;;;;;;;;5097853;28;20048;-81
2021/01/11 13:15:38;;;;;;;12.00;6.10;;;;;;;;;;5108565;28;20065;-81
2021/01/11 13:18:04;;;;;;;9.85;5.38;;;;;;;;;;5106943;28;20087;-81
2021/01/11 13:20:30;;;;;;;7.60;4.68;;;;;;;;;;5105643;28;20051;-81
2021/01/11 13:22:56;;;;;;;8.10;4.72;;;;;;;;;;5101516;28;20059;-81
2021/01/11 13:25:27;;;;;;;8.40;5.45;;;;;;;;;;5100667;28;20051;-81
2021/01/11 13:27:53;;;;;;;8.38;5.00;;;;;;;;;;5101252;28;20759;-81
2021/01/11 13:30:19;;;;;;;9.52;4.95;;;;;;;;;;5094210;28;20044;-81
2021/01/11 13:32:45;;;;;;;12.13;5.75;;;;;;;;;;5100548;28;20036;-81
2021/01/11 13:35:11;;;;;;;8.98;4.95;;;;;;;;;;5099195;28;20154;-81
2021/01/11 13:37:38;;;;;;;10.57;5.57;;;;;;;;;;5107927;28;20462;-81
2021/01/11 13:40:07;;;;;;;8.75;5.50;;;;;;;;;;5100712;28;20031;-79
2021/01/11 13:42:36;;;;;;;9.68;5.40;;;;;;;;;;5107858;28;20388;-81
2021/01/11 13:45:04;;;;;;;7.55;4.38;;;;;;;;;;5105380;28;20032;-81
2021/01/11 13:47:30;;;;;;;9.45;5.55;;;;;;;;;;5109372;28;20039;-81
2021/01/11 13:49:56;;;;;;;8.70;5.43;;;;;;;;;;5108857;28;20423;-81
2021/01/11 13:52:22;;;;;;;8.50;5.30;;;;;;;;;;5118195;28;20036;-81
2021/01/11 13:54:48;;;;;;;8.75;4.68;;;;;;;;;;5122272;28;20380;-81
2021/01/11 13:57:15;;;;;;;7.80;4.00;;;;;;;;;;5116852;28;20008;-81
2021/01/11 13:59:40;;;;;;;6.70;4.25;;;;;;;;;;5117860;28;20472;-81
2021/01/11 14:02:07;;;;;;;7.88;4.65;;;;;;;;;;5111360;28;20035;-81
2021/01/11 14:04:33;;;;;;;8.63;4.78;;;;;;;;;;5119162;28;20024;-81
2021/01/11 14:06:59;;;;;;;9.23;5.63;;;;;;;;;;5116583;27;20019;-81
2021/01/11 14:09:24;;;;;;;8.75;4.95;;;;;;;;;;5116020;28;20399;-81
2021/01/11 14:11:50;;;;;;;8.35;5.05;;;;;;;;;;5117853;28;20027;-81
2021/01/11 14:14:17;;;;;;;13.38;5.85;;;;;;;;;;5095695;28;20024;-81
2021/01/11 14:16:43;;;;;;;10.07;5.38;;;;;;;;;;5100707;28;20076;-81
2021/01/11 14:19:09;;;;;;;9.00;4.97;;;;;;;;;;5096902;28;20495;-81
2021/01/11 14:21:35;;;;;;;8.85;5.53;;;;;;;;;;5085995;28;20021;-81
2021/01/11 14:24:02;;;;;;;8.02;4.70;;;;;;;;;;5102042;28;20074;-80
2021/01/11 14:26:32;;;;;;;8.98;5.32;;;;;;;;;;5087609;28;20114;-84
2021/01/11 14:28:58;;;;;;;8.57;5.25;;;;;;;;;;5086859;28;20012;-84
2021/01/11 14:31:24;;;;;;;9.73;5.82;;;;;;;;;;5082430;28;20382;-85
2021/01/11 14:33:50;;;;;;;9.43;5.25;;;;;;;;;;5086486;28;20034;-83
2021/01/11 14:36:16;;;;;;;9.18;5.63;;;;;;;;;;5102433;28;20039;-84
2021/01/11 14:38:42;;;;;;;10.38;5.78;;;;;;;;;;5098461;28;20024;-84
2021/01/11 14:41:17;;;;;;;8.68;5.05;;;;;;;;;;5082061;28;20496;-84
2021/01/11 14:43:43;;;;;;;12.52;7.38;;;;;;;;;;5096821;28;20032;-84
2021/01/11 14:46:20;;;;;;;11.10;6.78;;;;;;;;;;5095226;28;20027;-80
2021/01/11 14:48:46;;;;;;;11.07;6.35;;;;;;;;;;5093739;28;20026;-80
2021/01/11 14:51:12;;;;;;;11.25;5.45;;;;;;;;;;5095497;28;20029;-80
2021/01/11 14:53:41;;;;;;;12.77;6.60;;;;;;;;;;5104315;28;20046;-80
2021/01/11 14:56:13;;;;;;;11.15;6.40;;;;;;;;;;5096572;28;20076;-78
2021/01/11 14:58:40;;;;;;;10.57;5.50;;;;;;;;;;5100443;28;20020;-80
2021/01/11 15:01:06;;;;;;;10.90;5.55;;;;;;;;;;5090576;28;20024;-80
2021/01/11 15:03:33;;;;;;;7.25;4.50;;;;;;;;;;5092785;28;20040;-80
2021/01/11 15:05:59;;;;;;;8.88;5.57;;;;;;;;;;5091922;28;20098;-81
2021/01/11 15:08:25;;;;;;;7.78;4.88;;;;;;;;;;5088944;28;20024;-80
2021/01/11 15:10:51;;;;;;;7.28;4.70;;;;;;;;;;5092013;28;20023;-80
2021/01/11 15:13:17;;;;;;;8.85;5.43;;;;;;;;;;5086320;28;20051;-80
2021/01/11 15:15:45;;;;;;;11.90;6.07;;;;;;;;;;5093215;28;20028;-80
2021/01/11 15:18:12;;;;;;;10.10;5.88;;;;;;;;;;5098181;28;20052;-80
2021/01/11 15:20:40;;;;;;;8.57;5.68;;;;;;;;;;5096150;28;20395;-80
2021/01/11 15:23:06;;;;;;;9.25;5.22;;;;;;;;;;5091797;28;20028;-80
2021/01/11 15:25:32;;;;;;;9.18;5.63;;;;;;;;;;5096246;28;20021;-80
2021/01/11 15:27:58;;;;;;;9.88;5.95;;;;;;;;;;5093789;28;20035;-81
2021/01/11 15:30:24;;;;;;;10.50;5.68;;;;;;;;;;5093260;28;20039;-80
2021/01/11 15:32:49;;;;;;;11.85;5.82;;;;;;;;;;5091758;28;20032;-80
2021/01/11 15:35:16;;;;;;;19.88;10.43;;;;;;;;;;5089940;28;20075;-80
2021/01/11 15:37:42;;;;;;;11.75;7.22;;;;;;;;;;5090118;28;20031;-80
2021/01/11 15:40:08;;;;;;;11.52;7.45;;;;;;;;;;5091181;28;20059;-80
2021/01/11 15:42:34;;;;;;;12.82;6.30;;;;;;;;;;5092973;28;20046;-80
2021/01/11 15:45:00;;;;;;;10.25;6.00;;;;;;;;;;5089329;28;20099;-80
2021/01/11 15:47:26;;;;;;;10.77;6.78;;;;;;;;;;5092161;28;20093;-80
2021/01/11 15:49:52;;;;;;;10.40;6.40;;;;;;;;;;5086499;28;20021;-80
2021/01/11 15:52:18;;;;;;;10.20;6.10;;;;;;;;;;5090288;28;20035;-80
2021/01/11 15:59:20;;;;;;;10.25;5.63;;;;;;;;;;5109774;27;20769;-80
2021/01/11 16:01:47;;;;;;;9.50;4.93;;;;;;;;;;5106418;28;20081;-80
2021/01/11 16:04:13;;;;;;;8.02;5.00;;;;;;;;;;5106113;28;20036;-81
2021/01/11 16:06:42;;;;;;;8.55;5.22;;;;;;;;;;5105573;28;20082;-81
2021/01/11 16:09:08;;;;;;;9.00;5.18;;;;;;;;;;5097033;28;20663;-80
2021/01/11 16:11:34;;;;;;;7.47;4.43;;;;;;;;;;5097653;28;20050;-76
2021/01/11 16:14:01;;;;;;;8.68;4.93;;;;;;;;;;5088819;28;20027;-76
2021/01/11 16:16:27;;;;;;;7.55;4.22;;;;;;;;;;5093473;28;20477;-76
2021/01/11 16:18:53;;;;;;;9.15;5.32;;;;;;;;;;5098048;28;20067;-76
2021/01/11 16:21:20;;;;;;;9.40;5.90;;;;;;;;;;5096330;28;20074;-76
2021/01/11 16:23:46;;;;;;;9.18;5.45;;;;;;;;;;5096121;28;20098;-76
2021/01/11 16:26:21;;;;;;;8.38;5.30;;;;;;;;;;5091439;28;20052;-76
2021/01/11 16:28:47;;;;;;;11.18;6.95;;;;;;;;;;5093884;28;20028;-76
2021/01/11 16:31:30;;;;;;;10.13;6.47;;;;;;;;;;5092606;28;20091;-76
2021/01/11 16:33:56;;;;;;;11.68;7.72;;;;;;;;;;5092037;28;20119;-76
2021/01/11 16:36:22;;;;;;;11.93;7.63;;;;;;;;;;5095958;28;20503;-77
2021/01/11 16:38:49;;;;;;;13.25;7.32;;;;;;;;;;5098923;28;20028;-76
2021/01/11 16:50:25;;;;;;;12.85;8.63;;;;;;;;;;5098915;28;20111;-76
2021/01/11 16:55:55;;;;;;;13.00;8.38;;;;;;;;;;5096895;28;20463;-80
2021/01/11 17:10:36;;;;;;;24.88;14.50;;;;;;;;;;5093219;28;20528;-83
2021/01/11 17:13:02;;;;;;;20.80;12.05;;;;;;;;;;5087477;28;20043;-83
2021/01/11 17:15:28;;;;;;;22.80;12.15;;;;;;;;;;5087058;28;20035;-83
2021/01/11 17:17:54;;;;;;;22.63;12.85;;;;;;;;;;5091424;28;20023;-83
2021/01/11 17:20:20;;;;;;;32.40;18.27;;;;;;;;;;5085844;28;20075;-84
2021/01/11 17:22:46;;;;;;;34.30;19.05;;;;;;;;;;5083324;28;20023;-84
2021/01/11 17:25:12;;;;;;;41.83;23.65;;;;;;;;;;5080880;28;20028;-84
2021/01/11 17:27:41;;;;;;;34.95;21.27;;;;;;;;;;5084799;28;20206;-84
2021/01/11 17:30:07;;;;;;;33.47;17.65;;;;;;;;;;5081123;28;20028;-83
2021/01/11 17:32:35;;;;;;;30.08;15.88;;;;;;;;;;5089989;28;20040;-84
2021/01/11 17:35:01;;;;;;;26.08;15.27;;;;;;;;;;5087862;28;20031;-83
2021/01/11 17:37:27;;;;;;;24.85;12.93;;;;;;;;;;5088044;28;20438;-84
2021/01/11 17:39:54;;;;;;;22.65;12.25;;;;;;;;;;5086014;28;20191;-84
2021/01/11 17:42:20;;;;;;;26.92;13.55;;;;;;;;;;5079278;28;20508;-84
2021/01/11 17:44:46;;;;;;;21.73;13.10;;;;;;;;;;5083489;28;20472;-83
2021/01/11 17:47:12;;;;;;;23.52;12.73;;;;;;;;;;5087154;28;20873;-83
2021/01/11 17:49:38;;;;;;;23.20;12.98;;;;;;;;;;5082642;28;20039;-84
2021/01/11 17:52:04;;;;;;;24.85;15.10;;;;;;;;;;5081988;28;20401;-84
2021/01/11 17:54:30;;;;;;;24.83;15.15;;;;;;;;;;5087364;28;20088;-83
2021/01/11 17:56:56;;;;;;;21.75;13.57;;;;;;;;;;5079313;28;20032;-83
2021/01/11 17:59:22;;;;;;;23.13;13.30;;;;;;;;;;5088637;28;20062;-83
2021/01/11 18:01:48;;;;;;;21.90;12.68;;;;;;;;;;5085832;28;20035;-83
2021/01/11 18:04:15;;;;;;;25.00;14.85;;;;;;;;;;5082984;28;20027;-83
2021/01/11 18:06:41;;;;;;;25.60;13.15;;;;;;;;;;5087180;28;20549;-83
2021/01/11 18:09:08;;;;;;;21.95;13.23;;;;;;;;;;5081284;28;20023;-84
2021/01/11 18:11:40;;;;;;;24.17;14.25;;;;;;;;;;5086986;28;20426;-83
2021/01/11 18:14:06;;;;;;;29.45;16.50;;;;;;;;;;5095021;28;20092;-83
2021/01/11 18:18:50;;;;;;;23.00;13.77;;;;;;;;;;5102443;28;20356;-82
2021/01/11 18:21:18;;;;;;;26.45;14.90;;;;;;;;;;5092439;28;20089;-82
2021/01/11 18:23:44;;;;;;;24.70;13.85;;;;;;;;;;5086099;28;20032;-83
2021/01/11 18:26:10;;;;;;;25.67;14.43;;;;;;;;;;5075682;28;20025;-83
2021/01/11 18:28:36;;;;;;;22.98;14.48;;;;;;;;;;5049827;28;20481;-83
2021/01/11 18:31:02;;;;;;;22.88;13.43;;;;;;;;;;5062625;28;20086;-83
2021/01/11 18:33:29;;;;;;;25.55;13.65;;;;;;;;;;5062405;28;20079;-83
2021/01/11 18:35:55;;;;;;;19.77;12.07;;;;;;;;;;5060817;28;20124;-83
2021/01/11 18:38:22;;;;;;;22.58;14.50;;;;;;;;;;5063361;28;20088;-83
2021/01/11 18:40:47;;;;;;;22.20;14.50;;;;;;;;;;5047494;28;20075;-83
2021/01/11 18:43:14;;;;;;;22.63;13.77;;;;;;;;;;5069831;28;20021;-81
2021/01/11 18:45:44;;;;;;;23.05;13.93;;;;;;;;;;5074499;28;20041;-81
2021/01/11 18:48:10;;;;;;;23.23;13.70;;;;;;;;;;5049680;28;20028;-82
2021/01/11 18:50:36;;;;;;;24.98;13.98;;;;;;;;;;5067306;28;20109;-82
2021/01/11 18:55:21;;;;;;;23.58;14.05;;;;;;;;;;5070901;28;20354;-82
2021/01/11 18:57:47;;;;;;;26.08;14.43;;;;;;;;;;5065759;28;20035;-82
2021/01/11 19:00:14;;;;;;;25.65;14.07;;;;;;;;;;5067599;28;20107;-82
2021/01/11 19:02:40;;;;;;;23.42;13.57;;;;;;;;;;5070253;28;20035;-81
2021/01/11 19:05:07;;;;;;;25.52;15.73;;;;;;;;;;5055259;28;20043;-81
2021/01/11 19:07:33;;;;;;;27.88;16.48;;;;;;;;;;5052834;28;20396;-80
2021/01/11 19:09:59;;;;;;;26.98;14.80;;;;;;;;;;5065007;28;20029;-81
2021/01/11 19:15:29;;;;;;;23.88;14.13;;;;;;;;;;5066308;28;20097;-81
2021/01/11 19:17:55;;;;;;;35.63;18.20;;;;;;;;;;5066199;28;20064;-81
2021/01/11 19:20:21;;;;;;;30.95;15.88;;;;;;;;;;5066084;28;20037;-81
2021/01/11 19:22:47;;;;;;;38.00;20.67;;;;;;;;;;5067204;28;20036;-81
2021/01/11 19:25:14;;;;;;;33.38;18.00;;;;;;;;;;5062143;28;20056;-81
2021/01/11 19:29:58;;;;;;;25.25;13.73;;;;;;;;;;5086495;27;20360;-81
2021/01/11 19:32:24;;;;;;;22.35;12.50;;;;;;;;;;5069951;28;20033;-81
2021/01/11 19:34:51;;;;;;;23.27;12.45;;;;;;;;;;5068320;28;20110;-82
2021/01/11 19:37:16;;;;;;;22.60;12.35;;;;;;;;;;5053806;28;20037;-82
2021/01/11 19:39:42;;;;;;;28.52;15.60;;;;;;;;;;5045511;28;20085;-82
2021/01/11 19:42:09;;;;;;;22.30;13.98;;;;;;;;;;5048837;28;20025;-81
2021/01/11 19:44:35;;;;;;;25.65;13.95;;;;;;;;;;5049707;28;20049;-82
2021/01/11 19:47:03;;;;;;;24.92;14.57;;;;;;;;;;5047161;28;20040;-81
2021/01/11 19:49:29;;;;;;;23.73;13.32;;;;;;;;;;5044388;28;20033;-82
2021/01/11 19:51:55;;;;;;;27.05;15.23;;;;;;;;;;5048468;28;20037;-82
2021/01/11 19:54:21;;;;;;;23.55;13.95;;;;;;;;;;5046036;28;20026;-82
2021/01/11 19:56:47;;;;;;;29.65;17.15;;;;;;;;;;5048935;28;20017;-82
2021/01/11 19:59:13;;;;;;;34.63;18.10;;;;;;;;;;5062648;28;20033;-82
2021/01/11 20:01:42;;;;;;;31.63;18.27;;;;;;;;;;5051070;28;20029;-82
2021/01/11 20:04:08;;;;;;;23.20;13.88;;;;;;;;;;5047110;28;20036;-82
2021/01/11 20:06:34;;;;;;;26.33;14.07;;;;;;;;;;5049074;28;20033;-82
2021/01/11 20:09:00;;;;;;;22.02;12.35;;;;;;;;;;5047918;28;20029;-82
2021/01/11 20:11:27;;;;;;;23.13;13.10;;;;;;;;;;5046794;28;20108;-82
2021/01/11 20:13:53;;;;;;;23.15;14.90;;;;;;;;;;5047174;28;20030;-82
2021/01/11 20:16:19;;;;;;;24.02;12.63;;;;;;;;;;5046706;28;20032;-82
2021/01/11 20:18:45;;;;;;;25.38;14.95;;;;;;;;;;5048091;28;20393;-82
2021/01/11 20:21:12;;;;;;;32.75;17.15;;;;;;;;;;5064416;28;20414;-82
2021/01/11 20:23:38;;;;;;;39.60;19.73;;;;;;;;;;5059323;28;20565;-82
2021/01/11 20:26:05;;;;;;;31.13;17.27;;;;;;;;;;5047364;28;20029;-81
2021/01/11 20:28:31;;;;;;;28.13;15.80;;;;;;;;;;5046459;28;20397;-81
2021/01/11 20:30:59;;;;;;;24.05;14.82;;;;;;;;;;5048196;28;20397;-82
2021/01/11 20:33:25;;;;;;;40.90;20.55;;;;;;;;;;5043893;28;20048;-81
2021/01/11 20:35:51;;;;;;;25.95;14.07;;;;;;;;;;5044468;28;20029;-82
2021/01/11 20:38:17;;;;;;;25.65;14.20;;;;;;;;;;5050062;28;20036;-81
2021/01/11 20:40:44;;;;;;;21.13;13.30;;;;;;;;;;5052805;28;20101;-81
2021/01/11 20:43:09;;;;;;;24.75;13.80;;;;;;;;;;5032140;28;20025;-81
2021/01/11 20:45:35;;;;;;;26.33;15.43;;;;;;;;;;5029085;28;20107;-81
2021/01/11 20:48:02;;;;;;;29.90;15.00;;;;;;;;;;5033401;28;20041;-81
2021/01/11 20:50:28;;;;;;;22.55;12.38;;;;;;;;;;5034113;28;20032;-80
2021/01/11 20:52:57;;;;;;;23.25;13.95;;;;;;;;;;5029559;28;20390;-80
2021/01/11 20:55:24;;;;;;;25.17;13.88;;;;;;;;;;5028620;28;20113;-80
2021/01/11 20:57:50;;;;;;;26.00;15.25;;;;;;;;;;5045605;28;20012;-80
2021/01/11 21:00:17;;;;;;;24.70;14.90;;;;;;;;;;5052813;28;20028;-80
2021/01/11 21:02:43;;;;;;;21.38;11.82;;;;;;;;;;5068378;28;20024;-81
2021/01/11 21:05:09;;;;;;;25.38;13.95;;;;;;;;;;5052695;28;20038;-80